Alpine, Kentucky
Current Conditions -  °F | °C
As of 5:15 PM on Thursday 23 Oct 2014 (Local Time) from KSME Reporting Station
Clear Clear  
Wind Chill: 15°   Ceiling: Unl
Heat Index: 15°   Visibility: 10mi
Dew Point:   Wind: 3mph
Humidity: 48%   Direction: 290°WNW
Pressure: 30.13"   Gusts: NA
Location:  36.938°N, 84.5342°W
Report Text: KSME 232115Z AUTO 29003KT 10SM CLR 15/04 A3013 RMK AO2
Loading
Personal Weather Stations






























Interactive Weather Map New forecast layout! Learn more

10-Day Weather Forecast

Advertisements
Track Severe Weather on mobile